sensor_id;sensor_type;location;lat;lon;timestamp;P1;durP1;ratioP1;P2;durP2;ratioP2
14774;SDS011;7479;47.042;15.160;2022-12-07T09:17:08;25.57;;;16.50;;
14774;SDS011;7479;47.042;15.160;2022-12-07T09:22:03;26.07;;;18.23;;
14774;SDS011;7479;47.042;15.160;2022-12-07T09:26:58;18.50;;;15.20;;
14774;SDS011;7479;47.042;15.160;2022-12-07T09:31:51;20.13;;;14.93;;
14774;SDS011;7479;47.042;15.160;2022-12-07T09:36:46;14.77;;;12.50;;
14774;SDS011;7479;47.042;15.160;2022-12-07T09:41:40;21.40;;;14.00;;
14774;SDS011;7479;47.042;15.160;2022-12-07T09:46:38;15.97;;;12.40;;
14774;SDS011;7479;47.042;15.160;2022-12-07T09:51:34;16.07;;;11.30;;
14774;SDS011;7479;47.042;15.160;2022-12-07T09:56:29;11.83;;;9.20;;
14774;SDS011;7479;47.042;15.160;2022-12-07T10:01:24;14.13;;;10.00;;
14774;SDS011;7479;47.042;15.160;2022-12-07T10:06:17;10.80;;;8.80;;
14774;SDS011;7479;47.042;15.160;2022-12-07T10:11:11;11.23;;;7.80;;
14774;SDS011;7479;47.042;15.160;2022-12-07T10:16:09;16.77;;;12.27;;
14774;SDS011;7479;47.042;15.160;2022-12-07T10:21:27;16.43;;;10.03;;
14774;SDS011;7479;47.042;15.160;2022-12-07T10:26:26;11.63;;;8.93;;
14774;SDS011;7479;47.042;15.160;2022-12-07T10:31:24;13.07;;;8.00;;
14774;SDS011;7479;47.042;15.160;2022-12-07T10:36:19;10.97;;;8.63;;
14774;SDS011;7479;47.042;15.160;2022-12-07T10:41:17;9.53;;;7.17;;
14774;SDS011;7479;47.042;15.160;2022-12-07T10:51:50;9.10;;;6.73;;
14774;SDS011;7479;47.042;15.160;2022-12-07T10:56:58;7.93;;;6.07;;
14774;SDS011;7479;47.042;15.160;2022-12-07T11:02:20;9.93;;;6.03;;
14774;SDS011;7479;47.042;15.160;2022-12-07T11:07:27;7.17;;;5.50;;
14774;SDS011;7479;47.042;15.160;2022-12-07T11:12:34;8.77;;;5.93;;
14774;SDS011;7479;47.042;15.160;2022-12-07T11:17:45;9.03;;;6.30;;
14774;SDS011;7479;47.042;15.160;2022-12-07T11:22:46;6.33;;;5.30;;
14774;SDS011;7479;47.042;15.160;2022-12-07T11:27:47;7.07;;;4.47;;
14774;SDS011;7479;47.042;15.160;2022-12-07T11:33:00;4.13;;;3.73;;
14774;SDS011;7479;47.042;15.160;2022-12-07T11:38:12;6.53;;;4.10;;
14774;SDS011;7479;47.042;15.160;2022-12-07T11:43:19;7.33;;;5.20;;
14774;SDS011;7479;47.042;15.160;2022-12-07T11:48:24;7.87;;;5.60;;
14774;SDS011;7479;47.042;15.160;2022-12-07T11:53:24;8.20;;;6.80;;
14774;SDS011;7479;47.042;15.160;2022-12-07T11:58:27;12.77;;;5.50;;
14774;SDS011;7479;47.042;15.160;2022-12-07T12:03:37;5.80;;;5.00;;
14774;SDS011;7479;47.042;15.160;2022-12-07T12:08:43;6.40;;;4.90;;
14774;SDS011;7479;47.042;15.160;2022-12-07T12:14:16;7.47;;;5.00;;
14774;SDS011;7479;47.042;15.160;2022-12-07T12:24:37;6.10;;;5.40;;
14774;SDS011;7479;47.042;15.160;2022-12-07T12:29:33;5.87;;;4.23;;
14774;SDS011;7479;47.042;15.160;2022-12-07T12:34:30;4.90;;;4.17;;
14774;SDS011;7479;47.042;15.160;2022-12-07T12:39:29;6.43;;;5.50;;
14774;SDS011;7479;47.042;15.160;2022-12-07T12:49:33;5.53;;;4.13;;
14774;SDS011;7479;47.042;15.160;2022-12-07T12:54:31;7.40;;;5.20;;
14774;SDS011;7479;47.042;15.160;2022-12-07T12:59:26;7.37;;;5.73;;
14774;SDS011;7479;47.042;15.160;2022-12-07T13:04:38;8.00;;;7.20;;
14774;SDS011;7479;47.042;15.160;2022-12-07T13:09:52;8.23;;;6.97;;
14774;SDS011;7479;47.042;15.160;2022-12-07T13:14:53;6.97;;;5.70;;
14774;SDS011;7479;47.042;15.160;2022-12-07T13:19:53;7.77;;;6.50;;
14774;SDS011;7479;47.042;15.160;2022-12-07T13:24:47;10.70;;;6.87;;
14774;SDS011;7479;47.042;15.160;2022-12-07T13:29:43;8.77;;;7.07;;
14774;SDS011;7479;47.042;15.160;2022-12-07T13:34:38;8.63;;;6.50;;
14774;SDS011;7479;47.042;15.160;2022-12-07T13:39:32;7.50;;;6.70;;
14774;SDS011;7479;47.042;15.160;2022-12-07T13:44:27;11.27;;;7.97;;
14774;SDS011;7479;47.042;15.160;2022-12-07T13:49:36;8.80;;;7.90;;
14774;SDS011;7479;47.042;15.160;2022-12-07T13:54:45;10.10;;;8.20;;
14774;SDS011;7479;47.042;15.160;2022-12-07T13:59:41;11.27;;;8.30;;
14774;SDS011;7479;47.042;15.160;2022-12-07T14:04:37;12.07;;;9.43;;
14774;SDS011;7479;47.042;15.160;2022-12-07T14:09:31;12.80;;;9.53;;
14774;SDS011;7479;47.042;15.160;2022-12-07T14:14:25;12.67;;;8.77;;
14774;SDS011;7479;47.042;15.160;2022-12-07T14:19:45;12.40;;;9.47;;
14774;SDS011;7479;47.042;15.160;2022-12-07T14:24:44;11.20;;;8.70;;
14774;SDS011;7479;47.042;15.160;2022-12-07T14:29:37;11.80;;;9.37;;
14774;SDS011;7479;47.042;15.160;2022-12-07T14:34:31;12.93;;;9.40;;
14774;SDS011;7479;47.042;15.160;2022-12-07T14:39:26;12.20;;;10.30;;
14774;SDS011;7479;47.042;15.160;2022-12-07T14:44:20;19.63;;;13.80;;
14774;SDS011;7479;47.042;15.160;2022-12-07T14:49:22;15.90;;;13.43;;
14774;SDS011;7479;47.042;15.160;2022-12-07T14:54:25;19.37;;;15.30;;
14774;SDS011;7479;47.042;15.160;2022-12-07T14:59:23;14.07;;;12.33;;
14774;SDS011;7479;47.042;15.160;2022-12-07T15:04:17;15.40;;;12.57;;
14774;SDS011;7479;47.042;15.160;2022-12-07T15:09:10;22.90;;;17.17;;
14774;SDS011;7479;47.042;15.160;2022-12-07T15:14:05;21.37;;;18.00;;
14774;SDS011;7479;47.042;15.160;2022-12-07T15:19:04;26.20;;;19.47;;
14774;SDS011;7479;47.042;15.160;2022-12-07T15:24:17;20.60;;;15.77;;
14774;SDS011;7479;47.042;15.160;2022-12-07T15:29:12;20.77;;;15.60;;
14774;SDS011;7479;47.042;15.160;2022-12-07T15:34:13;22.50;;;15.13;;
14774;SDS011;7479;47.042;15.160;2022-12-07T15:39:07;18.57;;;14.47;;
14774;SDS011;7479;47.042;15.160;2022-12-07T15:44:05;18.70;;;15.13;;
14774;SDS011;7479;47.042;15.160;2022-12-07T15:49:23;20.27;;;15.67;;
14774;SDS011;7479;47.042;15.160;2022-12-07T15:54:18;17.20;;;14.00;;
14774;SDS011;7479;47.042;15.160;2022-12-07T15:59:12;19.77;;;15.37;;
14774;SDS011;7479;47.042;15.160;2022-12-07T16:04:06;21.90;;;14.40;;
14774;SDS011;7479;47.042;15.160;2022-12-07T16:09:02;17.27;;;14.00;;
14774;SDS011;7479;47.042;15.160;2022-12-07T16:13:56;21.27;;;15.70;;
14774;SDS011;7479;47.042;15.160;2022-12-07T16:18:50;21.97;;;15.97;;
14774;SDS011;7479;47.042;15.160;2022-12-07T16:23:44;19.40;;;14.87;;
14774;SDS011;7479;47.042;15.160;2022-12-07T16:28:39;22.83;;;16.40;;
14774;SDS011;7479;47.042;15.160;2022-12-07T16:33:34;20.03;;;15.67;;
14774;SDS011;7479;47.042;15.160;2022-12-07T16:38:29;23.30;;;15.70;;
14774;SDS011;7479;47.042;15.160;2022-12-07T16:43:23;16.93;;;14.47;;
14774;SDS011;7479;47.042;15.160;2022-12-07T16:48:19;20.83;;;15.73;;
14774;SDS011;7479;47.042;15.160;2022-12-07T16:53:13;19.63;;;15.97;;
14774;SDS011;7479;47.042;15.160;2022-12-07T16:58:07;22.27;;;16.50;;
14774;SDS011;7479;47.042;15.160;2022-12-07T17:03:01;19.30;;;15.73;;
14774;SDS011;7479;47.042;15.160;2022-12-07T17:07:56;21.10;;;16.77;;
14774;SDS011;7479;47.042;15.160;2022-12-07T17:12:50;29.40;;;18.60;;
14774;SDS011;7479;47.042;15.160;2022-12-07T17:17:44;28.13;;;18.63;;
14774;SDS011;7479;47.042;15.160;2022-12-07T17:22:38;26.17;;;18.83;;
14774;SDS011;7479;47.042;15.160;2022-12-07T17:27:33;27.53;;;22.20;;
14774;SDS011;7479;47.042;15.160;2022-12-07T17:32:27;25.67;;;20.00;;
14774;SDS011;7479;47.042;15.160;2022-12-07T17:37:21;25.30;;;18.77;;
14774;SDS011;7479;47.042;15.160;2022-12-07T17:42:14;26.83;;;20.00;;
14774;SDS011;7479;47.042;15.160;2022-12-07T17:47:28;29.73;;;21.07;;
14774;SDS011;7479;47.042;15.160;2022-12-07T17:52:22;24.47;;;17.97;;
14774;SDS011;7479;47.042;15.160;2022-12-07T17:57:33;26.67;;;18.57;;
14774;SDS011;7479;47.042;15.160;2022-12-07T18:02:26;24.93;;;18.03;;
